createdAt,value
2017-09-11T00:00:39.504Z,86.30
2017-09-11T00:03:05.768Z,86.62
2017-09-11T00:05:31.974Z,87.08
2017-09-11T00:07:58.212Z,87.09
2017-09-11T00:10:24.474Z,87.03
2017-09-11T00:12:50.665Z,86.96
2017-09-11T00:15:16.877Z,86.53
2017-09-11T00:17:43.146Z,86.15
2017-09-11T00:20:09.368Z,85.68
2017-09-11T00:22:35.594Z,86.06
2017-09-11T00:25:01.876Z,86.36
2017-09-11T00:27:28.098Z,86.66
2017-09-11T00:29:54.336Z,85.65
2017-09-11T00:32:20.616Z,85.81
2017-09-11T00:34:46.839Z,85.45
2017-09-11T00:37:13.069Z,85.76
2017-09-11T00:39:39.349Z,85.85
2017-09-11T00:42:05.552Z,86.05
2017-09-11T00:44:31.788Z,86.20
2017-09-11T00:46:58.053Z,86.14
2017-09-11T00:49:24.265Z,86.12
2017-09-11T00:51:50.483Z,86.34
2017-09-11T00:54:16.758Z,86.57
2017-09-11T00:56:42.981Z,87.33
2017-09-11T00:59:09.211Z,87.64
2017-09-11T01:01:35.509Z,88.18
2017-09-11T01:04:01.749Z,87.82
2017-09-11T01:06:27.976Z,87.86
2017-09-11T01:08:54.249Z,87.92
2017-09-11T01:11:20.480Z,88.82
2017-09-11T01:13:46.695Z,88.32
2017-09-11T01:16:12.992Z,88.58
2017-09-11T01:18:39.223Z,89.23
2017-09-11T01:21:05.471Z,88.97
2017-09-11T01:23:31.762Z,88.98
2017-09-11T01:25:58.002Z,88.83
2017-09-11T01:28:24.287Z,89.10
2017-09-11T01:30:50.562Z,89.57
2017-09-11T01:33:16.788Z,89.23
2017-09-11T01:35:43.006Z,89.14
2017-09-11T01:38:09.296Z,87.76
2017-09-11T01:40:35.506Z,88.03
2017-09-11T01:43:01.729Z,86.99
2017-09-11T01:45:28.002Z,87.23
2017-09-11T01:47:54.232Z,86.92
2017-09-11T01:50:20.450Z,86.03
2017-09-11T01:52:46.730Z,85.85
2017-09-11T01:55:12.941Z,85.44
2017-09-11T01:57:39.175Z,85.57
2017-09-11T02:00:05.466Z,85.83
2017-09-11T02:02:31.700Z,85.49
2017-09-11T02:04:57.918Z,85.92
2017-09-11T02:07:24.205Z,86.63
2017-09-11T02:09:50.435Z,86.86
2017-09-11T02:12:16.676Z,86.18
2017-09-11T02:14:42.949Z,85.84
2017-09-11T02:17:09.169Z,86.08
2017-09-11T02:19:35.419Z,86.34
2017-09-11T02:22:01.689Z,85.72
2017-09-11T02:24:27.910Z,85.33
2017-09-11T02:26:54.139Z,84.85
2017-09-11T02:29:20.420Z,85.19
2017-09-11T02:31:46.648Z,85.75
2017-09-11T02:34:12.900Z,86.15
2017-09-11T02:36:39.202Z,85.67
2017-09-11T02:39:05.435Z,85.64
2017-09-11T02:41:31.725Z,85.88
2017-09-11T02:43:58.048Z,86.06
2017-09-11T02:46:24.296Z,86.08
2017-09-11T02:48:50.539Z,86.14
2017-09-11T02:51:16.805Z,86.74
2017-09-11T02:53:43.018Z,86.90
2017-09-11T02:56:09.244Z,87.04
2017-09-11T02:58:35.573Z,87.31
2017-09-11T03:01:01.793Z,86.96
2017-09-11T03:03:28.011Z,87.08
2017-09-11T03:05:54.286Z,87.82
2017-09-11T03:08:20.514Z,88.04
2017-09-11T03:10:46.755Z,87.53
2017-09-11T03:13:13.029Z,86.65
2017-09-11T03:15:39.257Z,87.05
2017-09-11T03:18:05.493Z,86.87
2017-09-11T03:20:31.770Z,87.43
2017-09-11T03:22:57.980Z,87.12
2017-09-11T03:25:24.201Z,87.01
2017-09-11T03:27:50.489Z,86.91
2017-09-11T03:30:16.719Z,87.22
2017-09-11T03:32:42.933Z,87.45
2017-09-11T03:35:09.241Z,87.92
2017-09-11T03:37:35.485Z,88.06
2017-09-11T03:40:01.767Z,88.57
2017-09-11T03:42:28.068Z,88.48
2017-09-11T03:44:54.286Z,88.22
2017-09-11T03:47:20.514Z,88.35
2017-09-11T03:49:46.813Z,89.05
2017-09-11T03:52:13.029Z,88.64
2017-09-11T03:54:39.245Z,88.70
2017-09-11T03:57:05.524Z,88.47
2017-09-11T03:59:31.748Z,87.47
2017-09-11T04:01:57.975Z,87.38
2017-09-11T04:04:24.253Z,86.94
2017-09-11T04:06:50.457Z,86.56
2017-09-11T04:09:16.698Z,85.96
2017-09-11T04:11:42.993Z,84.14
2017-09-11T04:14:09.218Z,82.65
2017-09-11T04:16:35.463Z,80.52
2017-09-11T04:19:01.744Z,78.54
2017-09-11T04:21:27.971Z,75.91
2017-09-11T04:23:54.221Z,74.01
2017-09-11T04:26:20.514Z,72.85
2017-09-11T04:28:46.765Z,69.89
2017-09-11T04:31:12.994Z,69.60
2017-09-11T04:33:39.966Z,66.80
2017-09-11T04:36:06.226Z,66.09
2017-09-11T04:38:32.474Z,64.76
2017-09-11T04:40:58.761Z,62.00
2017-09-11T04:43:24.998Z,60.68
2017-09-11T04:45:51.245Z,58.90
2017-09-11T04:48:17.531Z,58.54
2017-09-11T04:50:43.767Z,57.36
2017-09-11T04:53:10.005Z,55.38
2017-09-11T04:55:36.277Z,54.45
2017-09-11T04:58:02.497Z,55.44
2017-09-11T05:00:28.733Z,53.58
2017-09-11T05:02:55.025Z,52.38
2017-09-11T05:05:21.246Z,50.56
2017-09-11T05:07:47.474Z,49.30
2017-09-11T05:10:13.755Z,48.63
2017-09-11T05:12:39.983Z,48.80
2017-09-11T05:15:06.211Z,48.23
2017-09-11T05:17:32.477Z,48.01
2017-09-11T05:19:58.709Z,46.48
2017-09-11T05:22:24.947Z,48.54
2017-09-11T05:24:51.238Z,47.71
2017-09-11T05:27:17.481Z,45.37
2017-09-11T05:29:43.719Z,43.76
2017-09-11T05:32:10.031Z,42.69
2017-09-11T05:34:36.277Z,41.91
2017-09-11T05:37:02.507Z,39.76
2017-09-11T05:39:28.789Z,39.92
2017-09-11T05:41:55.038Z,36.91
2017-09-11T05:44:21.260Z,36.14
2017-09-11T05:46:47.530Z,36.17
2017-09-11T05:49:13.964Z,32.73
2017-09-11T05:51:40.196Z,32.72
2017-09-11T05:54:06.469Z,36.70
2017-09-11T05:56:32.690Z,33.50
2017-09-11T05:58:58.914Z,31.90
2017-09-11T06:01:25.247Z,32.96
2017-09-11T06:03:51.482Z,34.37
2017-09-11T06:06:17.695Z,32.83
2017-09-11T06:08:43.988Z,31.82
2017-09-11T06:11:10.211Z,31.03
2017-09-11T06:13:36.443Z,29.13
2017-09-11T06:16:02.681Z,30.08
2017-09-11T06:18:28.898Z,32.05
2017-09-11T06:20:55.126Z,31.85
2017-09-11T06:23:21.423Z,32.35
2017-09-11T06:25:47.665Z,31.89
2017-09-11T06:28:13.901Z,31.87
2017-09-11T06:30:40.180Z,31.38
2017-09-11T06:33:06.402Z,29.87
2017-09-11T06:35:32.627Z,30.99
2017-09-11T06:37:58.909Z,31.57
2017-09-11T06:40:25.137Z,32.78
2017-09-11T06:42:51.373Z,31.26
2017-09-11T06:45:17.641Z,33.02
2017-09-11T06:47:43.851Z,31.59
2017-09-11T06:50:10.085Z,33.20
2017-09-11T06:52:36.353Z,30.74
2017-09-11T06:55:02.587Z,31.94
2017-09-11T06:57:28.801Z,32.87
2017-09-11T06:59:55.091Z,33.67
2017-09-11T07:02:21.317Z,34.03
2017-09-11T07:04:47.559Z,32.70
2017-09-11T07:07:13.842Z,32.30
2017-09-11T07:09:40.075Z,30.45
2017-09-11T07:12:06.309Z,28.34
2017-09-11T07:14:32.609Z,30.00
2017-09-11T07:16:58.875Z,29.32
2017-09-11T07:19:25.097Z,29.12
2017-09-11T07:21:51.388Z,29.16
2017-09-11T07:24:17.598Z,30.68
2017-09-11T07:26:43.813Z,28.13
2017-09-11T07:29:10.081Z,27.55
2017-09-11T07:31:36.321Z,28.11
2017-09-11T07:34:02.592Z,31.44
2017-09-11T07:36:28.871Z,29.32
2017-09-11T07:38:55.094Z,30.13
2017-09-11T07:41:21.320Z,27.88
2017-09-11T07:43:47.594Z,28.21
2017-09-11T07:46:13.819Z,28.23
2017-09-11T07:48:40.043Z,28.04
2017-09-11T07:51:06.317Z,25.76
2017-09-11T07:53:32.547Z,26.19
2017-09-11T07:55:58.785Z,24.36
2017-09-11T07:58:25.073Z,24.90
2017-09-11T08:00:51.315Z,23.68
2017-09-11T08:03:17.553Z,22.19
2017-09-11T08:05:43.863Z,22.21
2017-09-11T08:08:10.113Z,21.31
2017-09-11T08:10:36.356Z,22.73
2017-09-11T08:13:02.666Z,22.22
2017-09-11T08:15:28.900Z,24.25
2017-09-11T08:17:55.145Z,27.52
2017-09-11T08:20:21.461Z,24.55
2017-09-11T08:22:47.686Z,24.15
2017-09-11T08:25:13.920Z,24.16
2017-09-11T08:27:40.200Z,22.02
2017-09-11T08:30:06.438Z,23.01
2017-09-11T08:32:32.654Z,24.15
2017-09-11T08:34:58.926Z,23.87
2017-09-11T08:37:25.172Z,22.92
2017-09-11T08:39:51.389Z,19.53
2017-09-11T08:42:17.663Z,20.79
2017-09-11T08:44:43.890Z,16.42
2017-09-11T08:47:10.131Z,17.00
2017-09-11T08:49:36.421Z,16.34
2017-09-11T08:52:02.645Z,15.38
2017-09-11T08:54:28.870Z,15.71
2017-09-11T08:56:55.138Z,15.85
2017-09-11T08:59:21.383Z,15.24
2017-09-11T09:01:47.626Z,14.75
2017-09-11T09:04:13.916Z,15.75
2017-09-11T09:06:40.149Z,15.82
2017-09-11T09:09:06.368Z,15.80
2017-09-11T09:11:32.651Z,16.56
2017-09-11T09:13:58.865Z,16.08
2017-09-11T09:16:25.078Z,16.75
2017-09-11T09:18:51.357Z,16.35
2017-09-11T09:21:17.590Z,18.25
2017-09-11T09:23:43.820Z,18.41
2017-09-11T09:26:10.080Z,18.04
2017-09-11T09:28:36.318Z,16.67
2017-09-11T09:31:02.554Z,17.55
2017-09-11T09:33:28.835Z,17.20
2017-09-11T09:35:55.057Z,17.02
2017-09-11T09:38:21.294Z,17.79
2017-09-11T09:40:47.559Z,16.96
2017-09-11T09:43:13.765Z,17.02
2017-09-11T09:45:39.994Z,18.08
2017-09-11T09:48:06.297Z,19.49
2017-09-11T09:50:32.522Z,18.08
2017-09-11T09:52:58.754Z,19.21
2017-09-11T09:55:25.027Z,19.87
2017-09-11T09:57:51.248Z,20.40
2017-09-11T10:00:17.481Z,20.57
2017-09-11T10:02:43.775Z,20.24
2017-09-11T10:05:10.059Z,20.01
2017-09-11T10:07:36.267Z,20.85
2017-09-11T10:10:02.556Z,19.76
2017-09-11T10:12:28.775Z,20.10
2017-09-11T10:14:54.997Z,18.90
2017-09-11T10:17:21.304Z,17.98
2017-09-11T10:19:47.554Z,17.04
2017-09-11T10:22:13.790Z,15.82
2017-09-11T10:24:40.094Z,15.08
2017-09-11T10:27:06.317Z,15.35
2017-09-11T10:29:32.537Z,14.34
2017-09-11T10:31:58.829Z,15.53
2017-09-11T10:34:25.048Z,16.48
2017-09-11T10:36:51.274Z,16.18
2017-09-11T10:39:17.552Z,15.52
2017-09-11T10:41:43.789Z,14.83
2017-09-11T10:44:10.018Z,15.74
2017-09-11T10:46:36.340Z,14.62
2017-09-11T10:49:02.554Z,14.81
2017-09-11T10:51:28.778Z,14.87
2017-09-11T10:53:55.063Z,15.39
2017-09-11T10:56:21.309Z,15.38
2017-09-11T10:58:47.516Z,15.06
2017-09-11T11:01:13.791Z,15.23
2017-09-11T11:03:40.007Z,15.50
2017-09-11T11:06:06.224Z,15.11
2017-09-11T11:08:32.534Z,15.57
2017-09-11T11:10:58.763Z,15.35
2017-09-11T11:13:25.039Z,15.62
2017-09-11T11:15:51.314Z,14.64
2017-09-11T11:18:17.535Z,16.89
2017-09-11T11:20:43.886Z,17.22
2017-09-11T11:23:10.152Z,17.12
2017-09-11T11:25:36.384Z,16.23
2017-09-11T11:28:02.600Z,16.27
2017-09-11T11:30:28.900Z,16.67
2017-09-11T11:32:55.129Z,17.67
2017-09-11T11:35:21.449Z,17.46
2017-09-11T11:37:47.758Z,18.10
2017-09-11T11:40:13.979Z,17.73
2017-09-11T11:42:40.771Z,17.47
2017-09-11T11:45:07.131Z,17.38
2017-09-11T11:47:33.345Z,17.72
2017-09-11T11:49:59.561Z,16.10
2017-09-11T11:52:25.825Z,17.21
2017-09-11T11:54:52.038Z,16.97
2017-09-11T11:57:18.265Z,17.19
2017-09-11T11:59:44.531Z,16.59
2017-09-11T12:02:10.763Z,17.27
2017-09-11T12:04:36.989Z,16.90
2017-09-11T12:07:03.286Z,16.76
2017-09-11T12:09:29.504Z,17.13
2017-09-11T12:11:55.740Z,14.89
2017-09-11T12:14:22.183Z,15.04
2017-09-11T12:16:48.394Z,16.12
2017-09-11T12:19:14.596Z,16.58
2017-09-11T12:21:40.882Z,16.41
2017-09-11T12:24:07.097Z,16.40
2017-09-11T12:26:33.310Z,16.40
2017-09-11T12:28:59.588Z,16.68
2017-09-11T12:31:25.800Z,17.05
2017-09-11T12:33:52.047Z,17.98
2017-09-11T12:36:18.326Z,17.58
2017-09-11T12:38:44.547Z,19.38
2017-09-11T12:41:10.771Z,19.00
2017-09-11T12:43:37.036Z,18.64
2017-09-11T12:46:03.249Z,18.40
2017-09-11T12:48:29.470Z,17.36
2017-09-11T12:50:55.752Z,17.64
2017-09-11T12:53:21.970Z,18.16
2017-09-11T12:55:48.185Z,17.95
2017-09-11T12:58:14.475Z,18.63
2017-09-11T13:00:40.698Z,18.90
2017-09-11T13:03:06.931Z,20.12
2017-09-11T13:05:33.203Z,19.83
2017-09-11T13:07:59.662Z,19.89
2017-09-11T13:10:25.896Z,20.42
2017-09-11T13:12:52.184Z,20.73
2017-09-11T13:15:18.412Z,20.90
2017-09-11T13:17:44.655Z,20.52
2017-09-11T13:20:10.925Z,20.85
2017-09-11T13:22:37.155Z,21.71
2017-09-11T13:25:03.356Z,22.25
2017-09-11T13:27:29.715Z,23.19
2017-09-11T13:29:55.930Z,22.76
2017-09-11T13:32:22.141Z,22.55
2017-09-11T13:34:48.413Z,22.92
2017-09-11T13:37:14.631Z,23.33
2017-09-11T13:39:40.849Z,23.52
2017-09-11T13:42:07.158Z,23.43
2017-09-11T13:44:33.380Z,23.92
2017-09-11T13:46:59.592Z,23.15
2017-09-11T13:49:25.850Z,23.28
2017-09-11T13:51:52.080Z,22.98
2017-09-11T13:54:18.320Z,23.30
2017-09-11T13:56:44.605Z,23.00
2017-09-11T13:59:10.813Z,23.05
2017-09-11T14:01:37.036Z,22.74
2017-09-11T14:04:03.323Z,22.73
2017-09-11T14:06:29.559Z,22.66
2017-09-11T14:08:55.754Z,22.92
2017-09-11T14:11:22.045Z,22.16
2017-09-11T14:13:48.260Z,22.21
2017-09-11T14:16:14.492Z,22.32
2017-09-11T14:18:40.779Z,23.02
2017-09-11T14:21:06.985Z,23.09
2017-09-11T14:23:33.204Z,23.09
2017-09-11T14:25:59.483Z,23.59
2017-09-11T14:28:25.698Z,23.70
2017-09-11T14:30:51.917Z,24.28
2017-09-11T14:33:18.184Z,24.13
2017-09-11T14:35:44.389Z,24.34
2017-09-11T14:38:10.600Z,24.52
2017-09-11T14:40:36.895Z,24.59
2017-09-11T14:43:03.110Z,25.11
2017-09-11T14:45:29.316Z,25.39
2017-09-11T14:47:55.588Z,25.01
2017-09-11T14:50:21.811Z,25.52
2017-09-11T14:52:48.037Z,26.01
2017-09-11T14:55:14.324Z,25.67
2017-09-11T14:57:40.542Z,25.80
2017-09-11T15:00:06.816Z,25.38
2017-09-11T15:02:33.112Z,25.37
2017-09-11T15:04:59.320Z,25.58
2017-09-11T15:07:25.711Z,25.43
2017-09-11T15:09:52.011Z,25.83
2017-09-11T15:12:18.228Z,25.47
2017-09-11T15:14:44.447Z,25.83
2017-09-11T15:17:10.704Z,25.97
2017-09-11T15:19:36.917Z,25.86
2017-09-11T15:22:03.142Z,26.47
2017-09-11T15:24:29.418Z,26.67
2017-09-11T15:26:55.643Z,26.39
2017-09-11T15:29:21.880Z,26.89
2017-09-11T15:31:48.163Z,26.52
2017-09-11T15:34:14.376Z,26.77
2017-09-11T15:36:40.599Z,26.47
2017-09-11T15:39:06.885Z,27.44
2017-09-11T15:41:33.126Z,27.16
2017-09-11T15:43:59.351Z,26.87
2017-09-11T15:46:25.634Z,28.27
2017-09-11T15:48:51.862Z,26.42
2017-09-11T15:51:18.082Z,26.78
2017-09-11T15:53:44.370Z,27.04
2017-09-11T15:56:10.607Z,27.54
2017-09-11T15:58:36.830Z,27.95
2017-09-11T16:01:03.137Z,28.28
2017-09-11T16:03:29.376Z,28.29
2017-09-11T16:05:55.603Z,28.51
2017-09-11T16:08:21.888Z,28.77
2017-09-11T16:10:48.108Z,28.98
2017-09-11T16:13:14.328Z,29.14
2017-09-11T16:15:40.722Z,29.83
2017-09-11T16:18:06.935Z,30.39
2017-09-11T16:20:33.153Z,31.00
2017-09-11T16:22:59.436Z,31.93
2017-09-11T16:25:25.654Z,31.30
2017-09-11T16:27:51.871Z,32.99
2017-09-11T16:30:18.161Z,33.94
2017-09-11T16:32:44.392Z,34.67
2017-09-11T16:35:10.606Z,33.09
2017-09-11T16:37:36.888Z,32.65
2017-09-11T16:40:03.244Z,30.60
2017-09-11T16:42:29.490Z,32.31
2017-09-11T16:44:55.772Z,34.09
2017-09-11T16:47:21.982Z,34.22
2017-09-11T16:49:48.208Z,36.55
2017-09-11T16:52:14.497Z,34.60
2017-09-11T16:54:40.728Z,32.49
2017-09-11T16:57:06.960Z,33.90
2017-09-11T16:59:33.271Z,34.43
2017-09-11T17:01:59.490Z,35.51
2017-09-11T17:04:25.716Z,36.59
2017-09-11T17:06:51.991Z,36.25
2017-09-11T17:09:18.204Z,36.15
2017-09-11T17:11:44.432Z,38.05
2017-09-11T17:14:10.724Z,40.60
2017-09-11T17:16:36.943Z,38.76
2017-09-11T17:19:03.170Z,38.70
2017-09-11T17:21:29.430Z,40.67
2017-09-11T17:23:55.645Z,40.08
2017-09-11T17:26:21.865Z,39.21
2017-09-11T17:28:48.148Z,40.45
2017-09-11T17:31:14.370Z,39.65
2017-09-11T17:33:40.611Z,40.91
2017-09-11T17:36:06.901Z,39.65
2017-09-11T17:38:33.129Z,44.04
2017-09-11T17:40:59.356Z,44.74
2017-09-11T17:43:25.652Z,47.63
2017-09-11T17:45:51.879Z,44.91
2017-09-11T17:48:18.102Z,47.91
2017-09-11T17:50:44.454Z,50.17
2017-09-11T17:53:10.688Z,49.44
2017-09-11T17:55:36.909Z,49.04
2017-09-11T17:58:03.192Z,50.64
2017-09-11T18:00:29.442Z,47.17
2017-09-11T18:02:55.657Z,49.33
2017-09-11T18:05:21.923Z,51.33
2017-09-11T18:07:48.131Z,47.04
2017-09-11T18:10:14.346Z,46.90
2017-09-11T18:12:40.615Z,46.68
2017-09-11T18:15:06.839Z,47.30
2017-09-11T18:17:33.146Z,45.70
2017-09-11T18:19:59.355Z,43.13
2017-09-11T18:22:25.556Z,41.90
2017-09-11T18:24:51.834Z,41.52
2017-09-11T18:27:18.076Z,41.42
2017-09-11T18:29:44.265Z,40.56
2017-09-11T18:32:10.533Z,40.81
2017-09-11T18:34:36.950Z,40.76
2017-09-11T18:37:03.137Z,40.63
2017-09-11T18:39:29.389Z,40.98
2017-09-11T18:41:55.602Z,40.24
2017-09-11T18:44:21.807Z,40.08
2017-09-11T18:46:48.063Z,40.17
2017-09-11T18:49:14.308Z,39.76
2017-09-11T18:51:40.501Z,40.21
2017-09-11T18:54:06.977Z,39.74
2017-09-11T18:56:33.168Z,39.37
2017-09-11T18:58:59.369Z,39.76
2017-09-11T19:01:25.641Z,40.40
2017-09-11T19:03:51.833Z,40.66
2017-09-11T19:06:18.029Z,41.66
2017-09-11T19:08:44.275Z,42.38
2017-09-11T19:11:10.478Z,42.63
2017-09-11T19:13:36.803Z,43.20
2017-09-11T19:16:03.055Z,43.59
2017-09-11T19:18:29.255Z,43.30
2017-09-11T19:20:55.461Z,44.08
2017-09-11T19:23:21.723Z,43.45
2017-09-11T19:25:47.944Z,44.40
2017-09-11T19:28:14.164Z,45.93
2017-09-11T19:30:40.434Z,47.30
2017-09-11T19:33:06.644Z,47.26
2017-09-11T19:35:32.843Z,46.89
2017-09-11T19:37:59.120Z,48.58
2017-09-11T19:40:25.345Z,43.99
2017-09-11T19:42:51.573Z,41.26
2017-09-11T19:45:17.848Z,39.78
2017-09-11T19:47:44.078Z,39.22
2017-09-11T19:50:10.289Z,39.21
2017-09-11T19:52:36.553Z,39.12
2017-09-11T19:55:02.757Z,38.54
2017-09-11T19:57:28.978Z,39.00
2017-09-11T19:59:55.260Z,38.56
2017-09-11T20:02:21.470Z,38.22
2017-09-11T20:04:47.673Z,37.11
2017-09-11T20:07:13.943Z,37.05
2017-09-11T20:09:40.151Z,37.10
2017-09-11T20:12:06.362Z,37.50
2017-09-11T20:14:32.604Z,35.35
2017-09-11T20:16:58.818Z,34.99
2017-09-11T20:19:25.025Z,34.42
2017-09-11T20:21:51.300Z,34.63
2017-09-11T20:24:17.506Z,34.60
2017-09-11T20:26:43.727Z,34.94
2017-09-11T20:29:10.002Z,35.09
2017-09-11T20:31:36.232Z,35.37
2017-09-11T20:34:02.563Z,35.99
2017-09-11T20:36:28.849Z,35.35
2017-09-11T20:38:55.055Z,35.95
2017-09-11T20:41:21.387Z,36.47
2017-09-11T20:43:47.684Z,35.75
2017-09-11T20:46:13.909Z,35.60
2017-09-11T20:48:40.134Z,36.29
2017-09-11T20:51:06.384Z,35.77
2017-09-11T20:53:32.600Z,35.81
2017-09-11T20:55:58.827Z,35.83
2017-09-11T20:58:25.112Z,35.42
2017-09-11T21:00:51.322Z,35.44
2017-09-11T21:03:17.660Z,34.81
2017-09-11T21:05:44.140Z,34.92
2017-09-11T21:08:10.355Z,34.77
2017-09-11T21:10:36.569Z,35.27
2017-09-11T21:13:02.836Z,34.52
2017-09-11T21:15:29.066Z,34.55
2017-09-11T21:17:55.289Z,34.95
2017-09-11T21:20:21.563Z,35.43
2017-09-11T21:22:47.816Z,35.34
2017-09-11T21:25:14.038Z,34.73
2017-09-11T21:27:40.322Z,34.93
2017-09-11T21:30:06.530Z,34.79
2017-09-11T21:32:32.728Z,34.18
2017-09-11T21:34:58.996Z,34.35
2017-09-11T21:37:25.211Z,33.96
2017-09-11T21:39:51.427Z,34.17
2017-09-11T21:42:17.699Z,34.58
2017-09-11T21:44:43.922Z,34.37
2017-09-11T21:47:10.143Z,34.96
2017-09-11T21:49:36.418Z,34.59
2017-09-11T21:52:02.646Z,35.77
2017-09-11T21:54:28.859Z,35.84
2017-09-11T21:56:55.108Z,36.49
2017-09-11T21:59:21.326Z,35.64
2017-09-11T22:01:47.547Z,35.59
2017-09-11T22:04:13.843Z,36.25
2017-09-11T22:06:40.056Z,38.68
2017-09-11T22:09:06.286Z,37.43
2017-09-11T22:11:32.530Z,36.60
2017-09-11T22:13:58.728Z,36.40
2017-09-11T22:16:24.954Z,35.51
2017-09-11T22:18:51.236Z,35.11
2017-09-11T22:21:17.461Z,35.22
2017-09-11T22:23:43.671Z,35.47
2017-09-11T22:26:09.967Z,34.09
2017-09-11T22:28:36.181Z,34.05
2017-09-11T22:31:02.390Z,34.09
2017-09-11T22:33:28.669Z,34.44
2017-09-11T22:35:54.874Z,34.30
2017-09-11T22:38:21.091Z,34.50
2017-09-11T22:40:47.352Z,34.73
2017-09-11T22:43:13.553Z,34.41
2017-09-11T22:45:39.762Z,34.14
2017-09-11T22:48:06.024Z,33.88
2017-09-11T22:50:32.222Z,34.72
2017-09-11T22:52:58.442Z,34.43
2017-09-11T22:55:24.777Z,34.46
2017-09-11T22:57:50.985Z,34.57
2017-09-11T23:00:17.274Z,34.84
2017-09-11T23:02:43.559Z,34.86
2017-09-11T23:05:09.765Z,34.74
2017-09-11T23:07:35.973Z,34.91
2017-09-11T23:10:02.238Z,35.29
2017-09-11T23:12:28.449Z,35.48
2017-09-11T23:14:54.661Z,35.67
2017-09-11T23:17:20.922Z,35.61
2017-09-11T23:19:47.142Z,35.98
2017-09-11T23:22:13.372Z,35.74
2017-09-11T23:24:39.630Z,35.70
2017-09-11T23:27:05.850Z,36.18
2017-09-11T23:29:32.065Z,35.85
2017-09-11T23:31:58.452Z,35.72
2017-09-11T23:34:24.667Z,35.72
2017-09-11T23:36:50.878Z,35.67
2017-09-11T23:39:17.146Z,35.29
2017-09-11T23:41:43.354Z,35.52
2017-09-11T23:44:09.571Z,35.29
2017-09-11T23:46:35.821Z,35.44
2017-09-11T23:49:02.025Z,35.78
2017-09-11T23:51:28.237Z,35.76
2017-09-11T23:53:54.505Z,35.74
2017-09-11T23:56:20.715Z,35.98
2017-09-11T23:58:46.936Z,35.96
